createdAt,value
2019-02-21T10:37:05.276Z,146.58
2019-02-21T10:38:05.096Z,146.58
2019-02-21T10:39:05.303Z,801.90
2019-02-21T10:40:04.967Z,160.64
2019-02-21T10:41:04.943Z,794.47
2019-02-21T10:42:04.973Z,801.90
2019-02-21T10:43:04.748Z,160.64
2019-02-21T10:44:04.745Z,801.90
2019-02-21T10:45:04.760Z,160.64
2019-02-21T10:46:04.789Z,146.58
2019-02-21T10:47:04.803Z,146.58
2019-02-21T10:48:04.833Z,146.58
2019-02-21T10:49:04.841Z,160.64
2019-02-21T10:50:05.221Z,146.58
2019-02-21T10:51:04.841Z,146.58
2019-02-21T10:52:04.843Z,801.90
2019-02-21T10:53:04.880Z,794.47
2019-02-21T10:54:04.870Z,146.58
2019-02-21T10:55:04.873Z,146.58
2019-02-21T10:56:04.853Z,801.90
2019-02-21T10:57:04.917Z,146.58
2019-02-21T10:58:04.876Z,146.58
2019-02-21T10:59:04.861Z,801.90
2019-02-21T11:00:05.079Z,794.47
2019-02-21T11:01:04.906Z,146.58
2019-02-21T11:02:04.977Z,146.58
2019-02-21T11:03:05.105Z,801.90
2019-02-21T11:04:04.916Z,146.58
2019-02-21T11:05:05.120Z,801.90
2019-02-21T11:06:05.142Z,801.90
2019-02-21T11:07:04.937Z,801.90
2019-02-21T11:08:04.937Z,801.90
2019-02-21T11:09:39.845Z,0.00
2019-02-21T11:10:39.757Z,0.00
2019-02-21T11:11:39.760Z,0.00
2019-02-21T11:12:39.777Z,0.00
2019-02-21T11:13:39.782Z,0.00
2019-02-21T11:14:47.230Z,0.00
2019-02-21T11:15:42.061Z,0.00
2019-02-21T11:16:39.857Z,0.00
2019-02-21T11:17:39.806Z,0.00
2019-02-21T11:18:39.830Z,0.00
2019-02-21T11:19:40.029Z,0.00
2019-02-21T11:20:40.092Z,0.00
2019-02-21T11:21:39.853Z,0.00
2019-02-21T11:22:39.876Z,0.00
2019-02-21T11:23:39.859Z,0.00
2019-02-21T11:24:39.874Z,0.00
2019-02-21T11:25:39.881Z,0.00
2019-02-21T11:26:39.866Z,0.00
2019-02-21T11:27:40.006Z,0.00
2019-02-21T11:28:39.879Z,0.00
2019-02-21T11:29:39.699Z,0.00
2019-02-21T11:31:39.727Z,0.00
2019-02-21T11:32:39.705Z,0.00
2019-02-21T11:33:39.758Z,0.00
2019-02-21T11:34:39.733Z,0.00
2019-02-21T11:35:39.752Z,0.00
2019-02-21T11:36:39.743Z,0.00
2019-02-21T11:37:43.234Z,0.00
2019-02-21T11:38:39.796Z,0.00
2019-02-21T11:39:39.834Z,0.00
2019-02-21T11:40:39.815Z,0.00
2019-02-21T11:41:39.858Z,0.00
2019-02-21T11:42:39.804Z,0.00
2019-02-21T11:43:39.790Z,0.00
2019-02-21T11:44:39.817Z,0.00
2019-02-21T11:45:39.867Z,0.00
2019-02-21T11:46:39.854Z,0.00
2019-02-21T11:47:39.853Z,0.00
2019-02-21T11:48:39.836Z,0.00
2019-02-21T11:49:39.847Z,0.00
2019-02-21T11:50:39.878Z,0.00
2019-02-21T11:51:39.869Z,0.00
2019-02-21T11:52:39.868Z,0.00
2019-02-21T11:53:39.901Z,0.00
2019-02-21T11:54:39.885Z,0.00
2019-02-21T11:55:39.897Z,0.00
2019-02-21T11:56:39.912Z,0.00
2019-02-21T11:57:39.911Z,0.00
2019-02-21T11:58:39.913Z,0.00
2019-02-21T11:59:39.938Z,0.00
2019-02-21T12:00:39.909Z,0.00
2019-02-21T12:01:39.937Z,0.00
2019-02-21T12:02:39.725Z,0.00
2019-02-21T12:03:39.771Z,0.00
2019-02-21T12:04:39.789Z,0.00
2019-02-21T12:05:39.756Z,0.00
2019-02-21T12:06:39.783Z,0.00
2019-02-21T12:07:39.779Z,0.00
2019-02-21T12:08:39.779Z,0.00
2019-02-21T12:09:39.816Z,0.00
2019-02-21T12:10:39.782Z,0.00
2019-02-21T12:11:39.824Z,0.00
2019-02-21T12:12:39.794Z,0.00
2019-02-21T12:13:39.860Z,0.00
2019-02-21T12:14:39.804Z,0.00
2019-02-21T12:15:39.803Z,0.00
2019-02-21T12:16:39.839Z,0.00
2019-02-21T12:17:42.561Z,0.00
2019-02-21T12:18:40.466Z,0.00
2019-02-21T12:19:40.299Z,0.00
2019-02-21T12:20:40.270Z,0.00
2019-02-21T12:21:40.085Z,0.00
2019-02-21T12:22:40.111Z,0.00
2019-02-21T12:23:40.119Z,0.00
2019-02-21T12:24:40.092Z,0.00
2019-02-21T12:25:40.113Z,0.00
2019-02-21T12:26:40.110Z,0.00
2019-02-21T12:27:40.094Z,0.00
2019-02-21T12:28:40.195Z,0.00
2019-02-21T12:29:40.176Z,0.00
2019-02-21T12:30:40.139Z,0.00
2019-02-21T12:31:40.162Z,0.00
2019-02-21T12:32:40.151Z,0.00
2019-02-21T12:33:40.233Z,0.00
2019-02-21T12:34:40.229Z,0.00
2019-02-21T12:35:40.194Z,0.00
2019-02-21T12:36:40.235Z,0.00
2019-02-21T12:37:40.212Z,0.00
2019-02-21T12:38:40.215Z,0.00
2019-02-21T12:39:40.222Z,0.00
2019-02-21T12:40:40.227Z,0.00
2019-02-21T12:41:40.240Z,0.00
2019-02-21T12:42:40.258Z,0.00
2019-02-21T12:43:40.239Z,0.00
2019-02-21T12:44:40.271Z,0.00
2019-02-21T13:26:09.211Z,0.00
2019-02-21T13:31:08.862Z,0.00
2019-02-21T13:36:08.900Z,0.00
2019-02-21T13:41:08.950Z,0.00
2019-02-21T13:46:08.967Z,0.00
2019-02-21T14:01:32.630Z,-1929.60
2019-02-21T14:02:32.649Z,1076.47
2019-02-21T14:03:32.617Z,-1945.32
2019-02-21T14:04:32.648Z,-1945.32
2019-02-21T14:05:32.645Z,-1945.32
2019-02-21T14:08:29.213Z,988.80
2019-02-21T14:09:28.774Z,988.79
2019-02-21T14:10:28.559Z,988.78
2019-02-21T14:13:34.564Z,869.91
2019-02-21T14:14:34.351Z,1400.94
2019-02-21T14:15:34.354Z,869.91
2019-02-21T14:18:31.776Z,-1929.60
2019-02-21T14:19:31.578Z,-1929.60
2019-02-21T14:20:31.521Z,-1945.32
2019-02-21T14:46:40.544Z,988.24
2019-02-21T14:47:40.097Z,988.38
2019-02-21T14:48:40.130Z,988.35
2019-02-21T14:49:40.145Z,988.24
2019-02-21T14:50:40.157Z,988.26
2019-02-21T14:51:40.159Z,988.30
2019-02-21T14:52:40.152Z,988.29
2019-02-21T14:53:40.169Z,988.30
2019-02-21T14:54:40.180Z,988.30
2019-02-21T14:55:40.208Z,988.29
2019-02-21T14:56:40.804Z,988.29
2019-02-21T14:57:43.070Z,988.22
2019-02-21T14:58:40.197Z,988.21
2019-02-21T14:59:40.206Z,988.23
2019-02-21T15:00:40.247Z,988.20
2019-02-21T15:01:40.206Z,988.23
2019-02-21T15:02:40.257Z,988.23
2019-02-21T15:03:40.244Z,988.25
2019-02-21T15:04:40.249Z,988.23
2019-02-21T15:05:40.256Z,988.22
2019-02-21T15:06:40.257Z,988.24
2019-02-21T15:07:40.274Z,988.21
2019-02-21T15:08:40.310Z,988.25
2019-02-21T15:09:40.288Z,988.29
2019-02-21T15:10:40.501Z,988.24
2019-02-21T15:11:40.295Z,988.30
2019-02-21T15:12:40.295Z,988.28
2019-02-21T15:13:40.109Z,988.23
2019-02-21T15:14:40.386Z,988.27
2019-02-21T15:15:40.141Z,988.21
2019-02-21T15:16:40.150Z,988.31
2019-02-21T15:17:40.147Z,988.27
2019-02-21T15:18:40.366Z,988.26
2019-02-21T15:19:40.161Z,988.22
2019-02-21T15:20:44.028Z,988.23
2019-02-21T15:21:40.173Z,988.26
2019-02-21T15:22:40.220Z,988.31
2019-02-21T15:23:40.202Z,988.29
2019-02-21T15:24:40.205Z,988.25
2019-02-21T15:25:40.224Z,988.26
2019-02-21T15:26:40.319Z,988.28
2019-02-21T15:27:40.639Z,988.22
2019-02-21T15:28:40.237Z,988.26
2019-02-21T15:29:41.585Z,988.24
2019-02-21T15:30:40.305Z,988.19
2019-02-21T15:31:40.242Z,988.20
2019-02-21T15:32:40.278Z,988.20
2019-02-21T15:33:40.287Z,988.18
2019-02-21T15:34:40.303Z,988.14
2019-02-21T15:35:40.271Z,988.15
2019-02-21T15:36:40.516Z,988.11
2019-02-21T15:37:40.295Z,988.13
2019-02-21T15:38:40.299Z,988.15
2019-02-21T15:39:42.836Z,988.15
2019-02-21T15:40:43.266Z,988.11
2019-02-21T15:41:40.349Z,988.15
2019-02-21T15:42:41.169Z,988.11
2019-02-21T15:43:40.307Z,988.14
2019-02-21T15:44:40.355Z,988.16
2019-02-21T15:45:40.169Z,988.18
2019-02-21T15:46:40.142Z,988.15
2019-02-21T15:47:40.260Z,988.21
2019-02-21T15:48:40.285Z,988.19
2019-02-21T15:49:40.200Z,988.19
2019-02-21T15:50:40.582Z,988.20
2019-02-21T15:51:40.243Z,988.21
2019-02-21T15:52:40.215Z,988.20
2019-02-21T15:53:40.218Z,988.18
2019-02-21T15:54:40.209Z,988.10
2019-02-21T15:55:40.269Z,988.16
2019-02-21T15:56:40.275Z,988.13
2019-02-21T15:57:40.420Z,988.13
2019-02-21T15:58:40.310Z,988.11
2019-02-21T15:59:40.298Z,988.09
2019-02-21T16:00:40.240Z,988.14
2019-02-21T16:01:47.493Z,988.17
2019-02-21T16:02:40.265Z,988.14
2019-02-21T16:03:42.481Z,988.09
2019-02-21T16:04:40.335Z,988.22
2019-02-21T16:05:40.321Z,988.19
2019-02-21T16:06:50.935Z,988.16
2019-02-21T16:07:40.513Z,988.16
2019-02-21T16:08:40.397Z,988.20
2019-02-21T16:09:40.341Z,988.16
2019-02-21T16:10:40.518Z,988.15
2019-02-21T16:11:40.337Z,988.18
2019-02-21T16:12:40.619Z,988.10
2019-02-21T16:13:40.562Z,988.15
2019-02-21T16:14:40.406Z,988.21
2019-02-21T16:15:40.426Z,988.10
2019-02-21T16:16:40.188Z,988.18
2019-02-21T16:17:40.447Z,988.17
2019-02-21T16:18:40.196Z,988.19
2019-02-21T16:19:40.198Z,988.18
2019-02-21T16:20:40.219Z,988.21
2019-02-21T16:21:40.238Z,988.22
2019-02-21T16:22:40.203Z,988.14
2019-02-21T16:23:40.220Z,988.16
2019-02-21T16:24:40.439Z,988.17
2019-02-21T16:25:40.252Z,988.27
2019-02-21T16:26:40.269Z,988.21
2019-02-21T16:27:40.448Z,988.23
2019-02-21T16:28:40.254Z,988.27
2019-02-21T16:29:40.274Z,988.28
2019-02-21T16:30:40.295Z,988.29
2019-02-21T16:31:40.910Z,988.28
2019-02-21T16:32:40.358Z,988.25
2019-02-21T16:33:40.292Z,988.25
2019-02-21T16:34:40.326Z,988.23
2019-02-21T16:35:40.307Z,988.24
2019-02-21T16:36:40.528Z,988.25
2019-02-21T16:37:40.339Z,988.24
2019-02-21T16:38:40.322Z,988.23
2019-02-21T16:39:40.347Z,988.24
2019-02-21T16:40:40.366Z,988.24
2019-02-21T16:41:44.278Z,988.27
2019-02-21T16:42:40.351Z,988.28
2019-02-21T16:43:40.761Z,988.26
2019-02-21T16:44:40.385Z,988.35
2019-02-21T16:45:46.313Z,988.26
2019-02-21T16:46:40.402Z,988.28
2019-02-21T16:47:40.185Z,988.27
2019-02-21T16:48:40.215Z,988.28
2019-02-21T16:49:40.239Z,988.29
2019-02-21T16:50:40.625Z,988.26
2019-02-21T16:51:40.443Z,988.26
2019-02-21T16:52:40.287Z,988.25
2019-02-21T16:53:40.238Z,988.27
2019-02-21T16:54:40.249Z,988.31
2019-02-21T16:55:40.260Z,988.35
2019-02-21T16:56:40.253Z,988.32
2019-02-21T16:57:40.266Z,988.33
2019-02-21T16:58:42.799Z,988.36
2019-02-21T16:59:40.300Z,988.36
2019-02-21T17:00:51.315Z,988.41
2019-02-21T17:01:40.302Z,988.38
2019-02-21T17:02:40.302Z,988.41
2019-02-21T17:03:40.333Z,988.42
2019-02-21T17:04:40.348Z,988.47
2019-02-21T17:05:40.327Z,988.45
2019-02-21T17:06:40.331Z,988.48
2019-02-21T17:07:40.370Z,988.48
2019-02-21T17:08:40.338Z,988.43
2019-02-21T17:09:40.392Z,988.45
2019-02-21T17:10:40.361Z,988.52
2019-02-21T17:11:40.385Z,988.55
2019-02-21T17:12:40.423Z,988.52
2019-02-21T17:13:40.383Z,988.55
2019-02-21T17:14:40.409Z,988.52
2019-02-21T17:15:40.593Z,988.58
2019-02-21T17:16:40.472Z,988.57
2019-02-21T17:17:40.441Z,988.54
2019-02-21T17:18:40.215Z,988.60
2019-02-21T17:19:40.264Z,988.58
2019-02-21T17:20:40.237Z,988.61
2019-02-21T17:21:40.268Z,988.56
2019-02-21T17:22:40.247Z,988.62
2019-02-21T17:23:40.466Z,988.69
2019-02-21T17:24:40.276Z,988.67
2019-02-21T17:25:40.290Z,988.68
2019-02-21T17:26:40.303Z,988.73
2019-02-21T17:27:40.278Z,988.73
2019-02-21T17:28:40.353Z,988.70
2019-02-21T17:29:40.299Z,988.68
2019-02-21T17:30:40.301Z,988.67
2019-02-21T17:31:40.328Z,988.65
2019-02-21T17:32:40.323Z,988.64
2019-02-21T17:33:40.350Z,988.68
2019-02-21T17:34:40.371Z,988.71
2019-02-21T17:35:40.319Z,988.71
2019-02-21T17:36:40.361Z,988.65
2019-02-21T17:37:40.355Z,988.73
2019-02-21T17:38:40.404Z,988.73
2019-02-21T17:39:40.385Z,988.71
2019-02-21T17:40:40.396Z,988.74
2019-02-21T17:41:40.400Z,988.70
2019-02-21T17:42:40.391Z,988.71
2019-02-21T17:43:40.441Z,988.68
2019-02-21T17:44:40.442Z,988.65
2019-02-21T17:45:40.413Z,988.66
2019-02-21T17:46:40.424Z,988.68
2019-02-21T17:47:40.493Z,988.65
2019-02-21T17:48:40.449Z,988.66
2019-02-21T17:49:40.292Z,988.63
2019-02-21T17:50:40.456Z,988.65
2019-02-21T17:51:40.296Z,988.68
2019-02-21T17:52:40.261Z,988.58
2019-02-21T17:53:40.271Z,988.61
2019-02-21T17:54:40.292Z,988.63
2019-02-21T17:55:40.273Z,988.64
2019-02-21T17:56:40.352Z,988.60
2019-02-21T17:57:40.299Z,988.64
2019-02-21T17:58:40.293Z,988.63
2019-02-21T17:59:40.327Z,988.61
2019-02-21T18:00:40.337Z,988.67
2019-02-21T18:01:40.355Z,988.67
2019-02-21T18:02:40.514Z,988.72
2019-02-21T18:03:40.735Z,988.70
2019-02-21T18:04:40.344Z,988.68
2019-02-21T18:05:40.373Z,988.77
2019-02-21T18:06:40.395Z,988.74
2019-02-21T18:07:40.783Z,988.76
2019-02-21T18:08:40.572Z,988.84
2019-02-21T18:09:40.369Z,988.76
2019-02-21T18:10:40.396Z,988.71
2019-02-21T18:11:40.436Z,988.77
2019-02-21T18:12:40.500Z,988.81
2019-02-21T18:13:40.439Z,988.86
2019-02-21T18:14:40.411Z,988.85
2019-02-21T18:15:40.417Z,988.86
2019-02-21T18:16:40.445Z,988.92
2019-02-21T18:17:40.450Z,988.92
2019-02-21T18:18:40.733Z,988.93
2019-02-21T18:19:40.445Z,988.90
2019-02-21T18:20:40.275Z,988.88
2019-02-21T18:21:40.296Z,988.87
2019-02-21T18:22:40.296Z,988.83
2019-02-21T18:23:40.847Z,988.86
2019-02-21T18:24:40.309Z,988.83
2019-02-21T18:25:40.310Z,988.71
2019-02-21T18:26:40.298Z,988.78
2019-02-21T18:27:40.333Z,988.70
2019-02-21T18:28:40.319Z,988.74
2019-02-21T18:29:40.351Z,988.70
2019-02-21T18:30:40.354Z,988.66
2019-02-21T18:31:40.346Z,988.72
2019-02-21T18:32:40.350Z,988.80
2019-02-21T18:33:40.359Z,988.79
2019-02-21T18:34:40.378Z,988.81
2019-02-21T18:35:40.402Z,988.76
2019-02-21T18:36:40.363Z,988.76
2019-02-21T18:37:47.352Z,988.80
2019-02-21T18:38:40.396Z,988.79
2019-02-21T18:39:40.394Z,988.80
2019-02-21T18:40:40.432Z,988.82
2019-02-21T18:41:40.811Z,988.82
2019-02-21T18:42:40.431Z,988.78
2019-02-21T18:43:40.423Z,988.81
2019-02-21T18:44:40.449Z,988.88
2019-02-21T18:45:40.505Z,988.82
2019-02-21T18:46:40.451Z,988.80
2019-02-21T18:47:40.722Z,988.78
2019-02-21T18:48:40.663Z,988.79
2019-02-21T18:49:40.490Z,988.79
2019-02-21T18:50:40.507Z,988.83
2019-02-21T18:51:40.306Z,988.82
2019-02-21T18:52:40.290Z,988.77
2019-02-21T18:53:40.289Z,988.82
2019-02-21T18:54:40.297Z,988.83
2019-02-21T18:55:40.329Z,988.84
2019-02-21T18:56:40.360Z,988.85
2019-02-21T18:57:40.345Z,988.85
2019-02-21T18:58:40.332Z,988.90
2019-02-21T18:59:40.348Z,988.88
2019-02-21T19:00:40.566Z,988.88
2019-02-21T19:01:40.781Z,988.90
2019-02-21T19:02:40.371Z,988.96
2019-02-21T19:03:40.367Z,989.10
2019-02-21T19:04:40.414Z,989.07
2019-02-21T19:05:40.751Z,989.08
2019-02-21T19:06:40.426Z,989.01
2019-02-21T19:07:40.403Z,989.05
2019-02-21T19:08:40.420Z,988.94
2019-02-21T19:09:40.447Z,989.05
2019-02-21T19:10:40.416Z,989.09
2019-02-21T19:11:40.436Z,988.99
2019-02-21T19:12:40.643Z,988.97
2019-02-21T19:13:40.648Z,988.94
2019-02-21T19:14:40.487Z,988.97
2019-02-21T19:15:40.446Z,988.98
2019-02-21T19:16:40.479Z,988.97
2019-02-21T19:17:40.497Z,988.96
2019-02-21T19:18:40.505Z,989.01
2019-02-21T19:19:41.708Z,989.00
2019-02-21T19:20:40.684Z,989.05
2019-02-21T19:21:40.488Z,988.98
2019-02-21T19:22:40.423Z,988.94
2019-02-21T19:23:40.334Z,988.94
2019-02-21T19:24:40.343Z,988.84
2019-02-21T19:25:40.307Z,988.87
2019-02-21T19:26:40.340Z,988.78
2019-02-21T19:27:40.339Z,988.74
2019-02-21T19:28:40.336Z,988.77
2019-02-21T19:29:40.351Z,988.69
2019-02-21T19:30:40.355Z,988.68
2019-02-21T19:31:40.368Z,988.63
2019-02-21T19:32:40.397Z,988.69
2019-02-21T19:33:40.363Z,988.62
2019-02-21T19:34:40.384Z,988.63
2019-02-21T19:35:40.396Z,988.64
2019-02-21T19:36:40.398Z,988.57
2019-02-21T19:37:40.415Z,988.56
2019-02-21T19:38:40.615Z,988.49
2019-02-21T19:39:40.434Z,988.50
2019-02-21T19:40:40.444Z,988.48
2019-02-21T19:41:40.467Z,988.50
2019-02-21T19:42:40.463Z,988.54
2019-02-21T19:43:40.448Z,988.50
2019-02-21T19:44:40.460Z,988.50
2019-02-21T19:45:40.685Z,988.52
2019-02-21T19:46:40.480Z,988.52
2019-02-21T19:47:40.497Z,988.53
2019-02-21T19:48:40.712Z,988.48
2019-02-21T19:49:40.492Z,988.46
2019-02-21T19:50:40.503Z,988.51
2019-02-21T19:51:40.508Z,988.46
2019-02-21T19:52:40.507Z,988.45
2019-02-21T19:53:40.554Z,988.41
2019-02-21T19:54:40.343Z,988.42
2019-02-21T19:55:40.333Z,988.31
2019-02-21T19:56:40.332Z,988.36
2019-02-21T19:57:40.335Z,988.34
2019-02-21T19:58:40.383Z,988.39
2019-02-21T19:59:40.576Z,988.43
2019-02-21T20:00:40.392Z,988.36
2019-02-21T20:01:40.383Z,988.35
2019-02-21T20:02:40.396Z,988.38
2019-02-21T20:03:40.463Z,988.34
2019-02-21T20:04:40.422Z,988.34
2019-02-21T20:05:40.437Z,988.35
2019-02-21T20:06:40.424Z,988.32
2019-02-21T20:07:40.416Z,988.31
2019-02-21T20:08:40.446Z,988.32
2019-02-21T20:09:40.473Z,988.35
2019-02-21T20:10:40.529Z,988.28
2019-02-21T20:11:40.527Z,988.27
2019-02-21T20:12:40.468Z,988.23
2019-02-21T20:13:40.504Z,988.29
2019-02-21T20:14:40.504Z,988.28
2019-02-21T20:15:40.496Z,988.26
2019-02-21T20:16:40.519Z,988.27
2019-02-21T20:17:40.506Z,988.29
2019-02-21T20:18:40.518Z,988.23
2019-02-21T20:19:40.522Z,988.20
2019-02-21T20:20:40.534Z,988.21
2019-02-21T20:21:40.593Z,988.22
2019-02-21T20:22:40.540Z,988.20
2019-02-21T20:23:40.560Z,988.22
2019-02-21T20:24:40.578Z,988.17
2019-02-21T20:25:40.353Z,988.18
2019-02-21T20:26:40.405Z,988.18
2019-02-21T20:27:40.413Z,988.19
2019-02-21T20:28:40.382Z,988.14
2019-02-21T20:29:40.406Z,988.20
2019-02-21T20:30:40.383Z,988.16
2019-02-21T20:31:40.405Z,988.18
2019-02-21T20:32:40.414Z,988.18
2019-02-21T20:33:40.403Z,988.16
2019-02-21T20:34:40.431Z,988.12
2019-02-21T20:35:40.480Z,988.11
2019-02-21T20:36:50.476Z,988.04
2019-02-21T20:37:40.488Z,988.07
2019-02-21T20:38:40.483Z,988.11
2019-02-21T20:39:40.450Z,988.12
2019-02-21T20:40:40.474Z,988.02
2019-02-21T20:41:41.143Z,988.00
2019-02-21T20:42:40.495Z,988.05
2019-02-21T20:43:40.498Z,987.93
2019-02-21T20:44:40.523Z,987.93
2019-02-21T20:45:40.558Z,987.98
2019-02-21T20:46:40.529Z,987.94
2019-02-21T20:47:40.518Z,987.99
2019-02-21T20:48:40.521Z,987.99
2019-02-21T20:49:40.556Z,987.95
2019-02-21T20:50:40.746Z,987.93
2019-02-21T20:51:40.572Z,987.99
2019-02-21T20:52:40.605Z,987.92
2019-02-21T20:53:40.781Z,987.92
2019-02-21T20:54:40.610Z,987.90
2019-02-21T20:55:43.738Z,987.91
2019-02-21T20:56:40.382Z,987.98
2019-02-21T20:57:40.388Z,988.02
2019-02-21T20:58:40.429Z,987.98
2019-02-21T20:59:40.405Z,988.01
2019-02-21T21:00:40.412Z,987.98
2019-02-21T21:01:40.409Z,987.97
2019-02-21T21:02:40.434Z,987.97
2019-02-21T21:03:40.441Z,987.96
2019-02-21T21:04:40.472Z,987.97
2019-02-21T21:05:40.463Z,987.98
2019-02-21T21:06:40.465Z,987.98
2019-02-21T21:07:40.453Z,987.95
2019-02-21T21:08:44.342Z,987.94
2019-02-21T21:09:40.566Z,987.98
2019-02-21T21:10:40.511Z,988.03
2019-02-21T21:11:40.524Z,988.01
2019-02-21T21:12:40.491Z,988.01
2019-02-21T21:13:40.508Z,987.98
2019-02-21T21:14:40.519Z,987.98
2019-02-21T21:15:40.751Z,987.92
2019-02-21T21:16:40.536Z,987.94
2019-02-21T21:17:40.572Z,987.92
2019-02-21T21:18:40.557Z,987.92
2019-02-21T21:19:40.548Z,987.94
2019-02-21T21:20:40.565Z,987.93
2019-02-21T21:21:40.586Z,987.90
2019-02-21T21:22:40.573Z,987.86
2019-02-21T21:23:40.603Z,987.83
2019-02-21T21:24:40.994Z,987.86
2019-02-21T21:25:40.604Z,987.87
2019-02-21T21:26:40.626Z,987.87
2019-02-21T21:27:40.437Z,987.91
2019-02-21T21:28:40.400Z,987.89
2019-02-21T21:29:40.424Z,987.87
2019-02-21T21:30:40.418Z,987.90
2019-02-21T21:31:40.443Z,987.88
2019-02-21T21:32:40.477Z,987.89
2019-02-21T21:33:40.451Z,987.95
2019-02-21T21:34:40.452Z,987.91
2019-02-21T21:35:40.458Z,987.89
2019-02-21T21:36:40.480Z,987.98
2019-02-21T21:37:40.680Z,987.98
2019-02-21T21:38:40.482Z,988.03
2019-02-21T21:39:40.548Z,988.00
2019-02-21T21:40:40.559Z,987.91
2019-02-21T21:41:41.719Z,987.97
2019-02-21T21:42:40.521Z,987.93
2019-02-21T21:43:40.552Z,987.98
2019-02-21T21:44:40.669Z,987.98
2019-02-21T21:45:40.595Z,987.93
2019-02-21T21:46:40.535Z,987.90
2019-02-21T21:47:40.569Z,987.90
2019-02-21T21:48:40.561Z,987.92
2019-02-21T21:49:40.567Z,988.04
2019-02-21T21:50:40.576Z,987.96
2019-02-21T21:51:40.597Z,987.90
2019-02-21T21:52:40.608Z,987.87
2019-02-21T21:53:40.607Z,987.88
2019-02-21T21:54:40.608Z,987.85
2019-02-21T21:55:40.601Z,987.87
2019-02-21T21:56:40.620Z,987.84
2019-02-21T21:57:40.447Z,987.87
2019-02-21T21:58:40.448Z,987.87
2019-02-21T21:59:40.535Z,987.87
2019-02-21T22:00:40.443Z,987.89
2019-02-21T22:01:40.863Z,987.94
2019-02-21T22:02:40.474Z,987.96
2019-02-21T22:03:40.469Z,987.96
2019-02-21T22:04:40.466Z,987.89
2019-02-21T22:05:40.465Z,987.89
2019-02-21T22:06:40.516Z,987.94
2019-02-21T22:07:40.482Z,987.86
2019-02-21T22:08:40.535Z,987.90
2019-02-21T22:09:40.565Z,987.79
2019-02-21T22:10:40.514Z,987.80
2019-02-21T22:11:40.501Z,987.79
2019-02-21T22:12:40.519Z,987.70
2019-02-21T22:13:40.538Z,987.75
2019-02-21T22:14:40.573Z,987.69
2019-02-21T22:15:40.582Z,987.68
2019-02-21T22:16:40.567Z,987.62
2019-02-21T22:17:42.203Z,987.60
2019-02-21T22:18:40.575Z,987.61
2019-02-21T22:19:40.585Z,987.58
2019-02-21T22:20:40.632Z,987.63
2019-02-21T22:21:41.417Z,987.66
2019-02-21T22:22:40.600Z,987.65
2019-02-21T22:23:40.616Z,987.71
2019-02-21T22:24:40.806Z,987.67
2019-02-21T22:25:40.655Z,987.66
2019-02-21T22:26:40.654Z,987.68
2019-02-21T22:27:40.468Z,987.70
2019-02-21T22:28:40.474Z,987.61
2019-02-21T22:29:40.444Z,987.59
2019-02-21T22:30:40.452Z,987.64
2019-02-21T22:31:40.511Z,987.65
2019-02-21T22:32:40.678Z,987.59
2019-02-21T22:33:40.480Z,987.62
2019-02-21T22:34:40.476Z,987.61
2019-02-21T22:35:40.504Z,987.69
2019-02-21T22:36:40.695Z,987.66
2019-02-21T22:37:40.525Z,987.74
2019-02-21T22:38:40.546Z,987.65
2019-02-21T22:39:40.594Z,987.66
2019-02-21T22:40:40.515Z,987.54
2019-02-21T22:41:40.546Z,987.56
2019-02-21T22:42:40.533Z,987.64
2019-02-21T22:43:40.539Z,987.62
2019-02-21T22:44:40.603Z,987.71
2019-02-21T22:45:40.568Z,987.72
2019-02-21T22:46:40.573Z,987.69
2019-02-21T22:47:40.631Z,987.73
2019-02-21T22:48:47.171Z,987.67
2019-02-21T22:49:40.613Z,987.71
2019-02-21T22:50:40.634Z,987.63
2019-02-21T22:51:40.663Z,987.68
2019-02-21T22:52:40.648Z,987.71
2019-02-21T22:53:40.629Z,987.73
2019-02-21T22:54:40.622Z,987.80
2019-02-21T22:55:40.647Z,987.78
2019-02-21T22:56:40.681Z,987.81
2019-02-21T22:57:40.477Z,987.78
2019-02-21T22:58:45.043Z,987.75
2019-02-21T22:59:40.466Z,987.80
2019-02-21T23:00:40.890Z,987.74
2019-02-21T23:01:40.512Z,987.76
2019-02-21T23:02:40.508Z,987.71
2019-02-21T23:03:40.511Z,987.66
2019-02-21T23:04:40.526Z,987.67
2019-02-21T23:05:41.117Z,987.72
2019-02-21T23:06:40.525Z,987.68
2019-02-21T23:07:40.550Z,987.68
2019-02-21T23:08:40.553Z,987.65
2019-02-21T23:09:40.552Z,987.66
2019-02-21T23:10:40.564Z,987.59
2019-02-21T23:11:40.553Z,987.66
2019-02-21T23:12:40.564Z,987.60
2019-02-21T23:13:40.583Z,987.57
2019-02-21T23:14:40.618Z,987.60
2019-02-21T23:15:40.566Z,987.59
2019-02-21T23:16:40.802Z,987.58
2019-02-21T23:17:40.794Z,987.48
2019-02-21T23:18:40.820Z,987.47
2019-02-21T23:19:40.861Z,987.38
2019-02-21T23:20:40.854Z,987.43
2019-02-21T23:21:40.881Z,987.40
2019-02-21T23:22:40.838Z,987.46
2019-02-21T23:23:40.841Z,987.48
2019-02-21T23:24:40.851Z,987.54
2019-02-21T23:25:40.894Z,987.49
2019-02-21T23:26:40.885Z,987.55
2019-02-21T23:27:40.868Z,987.60
2019-02-21T23:28:41.074Z,987.55
2019-02-21T23:29:40.884Z,987.61
2019-02-21T23:30:40.927Z,987.70
2019-02-21T23:31:40.916Z,987.68
2019-02-21T23:32:40.915Z,987.70
2019-02-21T23:33:40.919Z,987.69
2019-02-21T23:34:40.939Z,987.75
2019-02-21T23:35:40.962Z,987.72
2019-02-21T23:36:40.957Z,987.66
2019-02-21T23:37:40.960Z,987.76
2019-02-21T23:38:40.949Z,987.77
2019-02-21T23:39:40.990Z,987.75
2019-02-21T23:40:41.046Z,987.73
2019-02-21T23:41:41.586Z,987.77
2019-02-21T23:42:41.002Z,987.77
2019-02-21T23:43:41.002Z,987.74
2019-02-21T23:44:41.017Z,987.71
2019-02-21T23:45:41.029Z,987.70
2019-02-21T23:46:41.032Z,987.71
2019-02-21T23:47:49.286Z,987.70
2019-02-21T23:48:41.030Z,987.63
2019-02-21T23:49:41.025Z,987.66
2019-02-21T23:50:41.059Z,987.67
2019-02-21T23:51:41.102Z,987.72
2019-02-21T23:52:41.062Z,987.74
2019-02-21T23:53:41.061Z,987.75
2019-02-21T23:54:41.112Z,987.76
2019-02-21T23:55:41.133Z,987.74
2019-02-21T23:56:41.078Z,987.73
2019-02-21T23:57:41.083Z,987.67
2019-02-21T23:58:41.291Z,987.68
2019-02-21T23:59:41.319Z,987.68
